createdAt,value
2024-02-07T00:01:52.312Z,5.28
2024-02-07T00:04:19.130Z,5.60
2024-02-07T00:06:45.838Z,5.85
2024-02-07T00:09:12.419Z,5.82
2024-02-07T00:11:38.958Z,6.00
2024-02-07T00:14:06.781Z,6.10
2024-02-07T00:16:33.349Z,5.43
2024-02-07T00:19:00.019Z,5.18
2024-02-07T00:21:26.958Z,4.63
2024-02-07T00:23:53.469Z,5.90
2024-02-07T00:26:20.326Z,5.65
2024-02-07T00:28:46.949Z,5.65
2024-02-07T00:31:13.565Z,6.10
2024-02-07T00:33:40.156Z,5.22
2024-02-07T00:36:06.816Z,5.70
2024-02-07T00:38:33.333Z,5.22
2024-02-07T00:41:00.234Z,5.35
2024-02-07T00:43:26.817Z,5.00
2024-02-07T00:45:55.761Z,5.70
2024-02-07T00:48:22.670Z,5.00
2024-02-07T00:50:49.155Z,5.57
2024-02-07T00:53:15.642Z,4.68
2024-02-07T00:55:42.233Z,5.03
2024-02-07T00:58:10.124Z,5.15
2024-02-07T01:00:36.723Z,5.28
2024-02-07T01:03:03.418Z,5.35
2024-02-07T01:05:29.998Z,5.30
2024-02-07T01:07:56.580Z,5.43
2024-02-07T01:10:23.136Z,5.45
2024-02-07T01:12:49.769Z,5.25
2024-02-07T01:15:16.316Z,5.32
2024-02-07T01:17:42.884Z,5.43
2024-02-07T01:20:11.838Z,6.32
2024-02-07T01:22:39.049Z,4.90
2024-02-07T01:25:06.707Z,5.35
2024-02-07T01:27:33.355Z,5.95
2024-02-07T01:29:59.969Z,6.22
2024-02-07T01:32:26.523Z,5.75
2024-02-07T01:34:53.905Z,5.68
2024-02-07T01:37:21.467Z,5.70
2024-02-07T01:39:48.019Z,5.38
2024-02-07T01:42:14.655Z,5.25
2024-02-07T01:44:41.378Z,5.25
2024-02-07T01:47:14.004Z,5.30
2024-02-07T01:49:50.144Z,6.30
2024-02-07T01:52:26.439Z,5.88
2024-02-07T01:54:56.795Z,6.28
2024-02-07T01:57:24.357Z,6.30
2024-02-07T01:59:50.981Z,5.85
2024-02-07T02:02:19.030Z,5.35
2024-02-07T02:04:46.643Z,5.45
2024-02-07T02:07:13.340Z,5.78
2024-02-07T02:09:40.442Z,5.57
2024-02-07T02:12:09.159Z,5.63
2024-02-07T02:14:35.687Z,5.18
2024-02-07T02:17:02.223Z,5.45
2024-02-07T02:19:28.905Z,6.45
2024-02-07T02:22:10.849Z,5.35
2024-02-07T02:24:50.244Z,5.15
2024-02-07T02:27:44.819Z,5.50
2024-02-07T02:30:22.769Z,5.53
2024-02-07T02:32:50.653Z,5.35
2024-02-07T02:35:21.148Z,5.00
2024-02-07T02:37:49.479Z,4.93
2024-02-07T02:40:16.311Z,6.43
2024-02-07T02:42:42.828Z,5.20
2024-02-07T02:45:09.505Z,5.00
2024-02-07T02:47:36.040Z,4.97
2024-02-07T02:50:02.777Z,5.95
2024-02-07T02:52:30.299Z,5.15
2024-02-07T02:54:57.879Z,5.82
2024-02-07T02:57:24.927Z,5.25
2024-02-07T02:59:52.006Z,5.03
2024-02-07T03:02:21.436Z,5.25
2024-02-07T03:04:51.180Z,5.40
2024-02-07T03:07:37.860Z,5.53
2024-02-07T03:10:06.109Z,4.63
2024-02-07T03:12:37.054Z,5.35
2024-02-07T03:15:03.957Z,5.38
2024-02-07T03:17:30.521Z,4.55
2024-02-07T03:19:57.172Z,4.45
2024-02-07T03:22:23.843Z,4.60
2024-02-07T03:24:56.875Z,4.95
2024-02-07T03:27:24.433Z,4.20
2024-02-07T03:29:50.940Z,4.82
2024-02-07T03:32:19.762Z,4.22
2024-02-07T03:34:46.370Z,4.47
2024-02-07T03:37:12.922Z,3.95
2024-02-07T03:39:39.444Z,4.45
2024-02-07T03:42:07.929Z,4.07
2024-02-07T03:44:34.409Z,4.47
2024-02-07T03:47:01.098Z,4.10
2024-02-07T03:49:27.743Z,4.28
2024-02-07T03:51:54.306Z,4.47
2024-02-07T03:54:21.353Z,4.88
2024-02-07T03:56:47.835Z,4.25
2024-02-07T03:59:14.413Z,3.78
2024-02-07T04:01:41.126Z,3.83
2024-02-07T04:04:09.702Z,3.25
2024-02-07T04:06:37.525Z,3.80
2024-02-07T04:09:07.637Z,3.55
2024-02-07T04:11:34.299Z,3.60
2024-02-07T04:14:00.879Z,4.45
2024-02-07T04:16:46.239Z,4.00
2024-02-07T04:19:31.109Z,3.72
2024-02-07T04:22:16.118Z,4.22
2024-02-07T04:25:01.368Z,3.80
2024-02-07T04:27:46.285Z,4.53
2024-02-07T04:30:31.827Z,3.95
2024-02-07T04:33:16.872Z,3.50
2024-02-07T04:36:02.212Z,3.45
2024-02-07T04:38:46.968Z,4.00
2024-02-07T04:41:31.897Z,1.50
2024-02-07T04:44:16.857Z,1.00
2024-02-07T04:47:01.986Z,0.82
2024-02-07T04:49:47.402Z,1.10
2024-02-07T04:52:32.524Z,0.82
2024-02-07T04:55:17.621Z,1.02
2024-02-07T04:58:02.760Z,0.88
2024-02-07T05:00:47.807Z,1.00
2024-02-07T05:03:32.794Z,0.88
2024-02-07T05:06:17.900Z,0.98
2024-02-07T05:09:03.250Z,1.17
2024-02-07T05:11:48.161Z,0.63
2024-02-07T05:14:33.126Z,0.82
2024-02-07T05:16:59.735Z,0.70
2024-02-07T05:19:26.374Z,0.80
2024-02-07T05:21:53.081Z,0.80
2024-02-07T05:24:19.605Z,0.80
2024-02-07T05:26:46.123Z,0.80
2024-02-07T05:29:17.150Z,1.20
2024-02-07T05:31:43.757Z,1.08
2024-02-07T05:34:10.805Z,0.80
2024-02-07T05:36:38.038Z,0.65
2024-02-07T05:39:04.529Z,0.60
2024-02-07T05:41:31.141Z,0.75
2024-02-07T05:43:57.778Z,0.90
2024-02-07T05:46:24.382Z,0.60
2024-02-07T05:48:51.088Z,0.70
2024-02-07T05:51:24.392Z,0.80
2024-02-07T05:53:51.093Z,0.85
2024-02-07T05:56:17.864Z,0.70
2024-02-07T05:58:44.601Z,0.90
2024-02-07T06:01:13.001Z,0.80
2024-02-07T06:03:39.630Z,1.20
2024-02-07T06:06:07.545Z,1.00
2024-02-07T06:08:34.612Z,1.80
2024-02-07T06:11:01.343Z,1.48
2024-02-07T06:13:28.079Z,1.33
2024-02-07T06:15:54.783Z,1.77
2024-02-07T06:18:21.389Z,1.40
2024-02-07T06:20:48.069Z,1.92
2024-02-07T06:23:14.628Z,1.52
2024-02-07T06:25:41.724Z,2.15
2024-02-07T06:28:08.368Z,1.80
2024-02-07T06:30:34.882Z,1.60
2024-02-07T06:33:01.513Z,1.92
2024-02-07T06:35:28.107Z,1.70
2024-02-07T06:37:54.706Z,2.13
2024-02-07T06:40:21.422Z,2.47
2024-02-07T06:42:48.067Z,3.20
2024-02-07T06:45:14.788Z,2.78
2024-02-07T06:47:41.418Z,2.50
2024-02-07T06:50:08.363Z,3.40
2024-02-07T06:52:34.942Z,3.53
2024-02-07T06:55:01.446Z,4.88
2024-02-07T06:57:28.018Z,3.97
2024-02-07T06:59:54.612Z,4.63
2024-02-07T07:02:21.174Z,3.90
2024-02-07T07:04:47.814Z,3.90
2024-02-07T07:07:14.414Z,3.88
2024-02-07T07:09:41.042Z,4.30
2024-02-07T07:12:08.001Z,1.83
2024-02-07T07:14:40.181Z,1.88
2024-02-07T07:17:07.312Z,2.30
2024-02-07T07:19:33.919Z,2.25
2024-02-07T07:22:00.441Z,1.90
2024-02-07T07:24:26.952Z,2.03
2024-02-07T07:26:53.468Z,2.88
2024-02-07T07:29:19.994Z,3.35
2024-02-07T07:31:46.606Z,3.15
2024-02-07T07:34:13.342Z,3.42
2024-02-07T07:36:40.166Z,4.40
2024-02-07T07:39:07.329Z,4.30
2024-02-07T07:41:34.930Z,2.75
2024-02-07T07:44:01.721Z,2.22
2024-02-07T07:46:28.402Z,2.33
2024-02-07T07:48:55.089Z,1.77
2024-02-07T07:51:21.874Z,1.65
2024-02-07T07:53:49.309Z,1.95
2024-02-07T07:56:16.441Z,2.25
2024-02-07T07:58:52.090Z,3.00
2024-02-07T08:01:24.275Z,2.90
2024-02-07T08:03:52.626Z,2.70
2024-02-07T08:06:19.296Z,4.57
2024-02-07T08:08:46.183Z,3.95
2024-02-07T08:11:12.837Z,4.20
2024-02-07T08:13:39.364Z,4.20
2024-02-07T08:16:06.411Z,6.22
2024-02-07T08:18:34.606Z,6.20
2024-02-07T08:21:01.360Z,6.13
2024-02-07T08:23:28.350Z,4.97
2024-02-07T08:25:55.020Z,5.60
2024-02-07T08:28:21.833Z,5.22
2024-02-07T08:30:48.392Z,4.65
2024-02-07T08:33:15.235Z,5.32
2024-02-07T08:35:42.228Z,6.45
2024-02-07T08:38:08.950Z,4.47
2024-02-07T08:40:35.803Z,4.75
2024-02-07T08:43:04.525Z,5.25
2024-02-07T08:45:31.155Z,5.25
2024-02-07T08:47:57.806Z,5.28
2024-02-07T08:50:24.421Z,4.60
2024-02-07T08:52:51.123Z,4.60
2024-02-07T08:55:17.877Z,4.82
2024-02-07T08:57:44.497Z,7.88
2024-02-07T09:00:11.927Z,7.63
2024-02-07T09:02:38.588Z,5.68
2024-02-07T09:05:06.361Z,7.43
2024-02-07T09:07:33.475Z,6.20
2024-02-07T09:10:00.772Z,5.45
2024-02-07T09:12:28.514Z,4.85
2024-02-07T09:14:57.249Z,5.60
2024-02-07T09:17:25.041Z,5.97
2024-02-07T09:19:52.026Z,4.30
2024-02-07T09:22:18.711Z,4.72
2024-02-07T09:24:45.335Z,5.35
2024-02-07T09:27:12.702Z,4.75
2024-02-07T09:29:39.298Z,4.25
2024-02-07T09:32:06.198Z,5.05
2024-02-07T09:34:32.920Z,5.35
2024-02-07T09:36:59.519Z,6.30
2024-02-07T09:39:26.110Z,4.70
2024-02-07T09:41:55.299Z,5.60
2024-02-07T09:44:24.029Z,5.90
2024-02-07T09:46:55.026Z,6.07
2024-02-07T09:49:25.848Z,4.75
2024-02-07T09:51:53.317Z,4.97
2024-02-07T09:54:20.659Z,3.63
2024-02-07T09:56:48.094Z,4.70
2024-02-07T09:59:17.072Z,4.47
2024-02-07T10:01:47.338Z,6.15
2024-02-07T10:04:24.116Z,5.90
2024-02-07T10:06:51.536Z,4.55
2024-02-07T10:09:18.398Z,4.82
2024-02-07T10:11:47.364Z,5.50
2024-02-07T10:14:14.640Z,5.32
2024-02-07T10:16:41.164Z,4.32
2024-02-07T10:19:07.797Z,3.63
2024-02-07T10:21:37.455Z,3.97
2024-02-07T10:24:05.104Z,6.88
2024-02-07T10:26:31.962Z,4.85
2024-02-07T10:29:03.095Z,4.03
2024-02-07T10:31:30.275Z,3.03
2024-02-07T10:33:59.528Z,2.75
2024-02-07T10:36:26.769Z,1.92
2024-02-07T10:39:00.894Z,2.30
2024-02-07T10:41:27.641Z,2.50
2024-02-07T10:43:54.261Z,2.83
2024-02-07T10:46:20.910Z,4.57
2024-02-07T10:48:49.448Z,5.13
2024-02-07T10:51:16.155Z,4.85
2024-02-07T10:53:43.496Z,5.32
2024-02-07T10:56:14.901Z,3.80
2024-02-07T10:58:42.157Z,4.10
2024-02-07T11:01:09.304Z,4.15
2024-02-07T11:03:36.409Z,4.60
2024-02-07T11:06:03.428Z,3.63
2024-02-07T11:08:30.868Z,3.28
2024-02-07T11:11:02.212Z,3.17
2024-02-07T11:13:29.478Z,3.10
2024-02-07T11:15:56.360Z,3.00
2024-02-07T11:18:22.934Z,1.88
2024-02-07T11:20:51.585Z,1.83
2024-02-07T11:23:24.178Z,2.50
2024-02-07T11:25:52.870Z,1.40
2024-02-07T11:28:20.595Z,1.45
2024-02-07T11:30:50.481Z,2.53
2024-02-07T11:33:19.769Z,1.33
2024-02-07T11:35:46.388Z,1.52
2024-02-07T11:38:13.270Z,1.50
2024-02-07T11:40:42.150Z,1.70
2024-02-07T11:43:11.149Z,1.70
2024-02-07T11:45:41.346Z,1.90
2024-02-07T11:48:25.106Z,2.10
2024-02-07T11:50:52.390Z,1.33
2024-02-07T11:53:20.554Z,2.05
2024-02-07T11:55:48.455Z,2.30
2024-02-07T11:58:21.822Z,1.88
2024-02-07T12:00:50.198Z,1.70
2024-02-07T12:03:17.842Z,1.70
2024-02-07T12:05:44.778Z,1.73
2024-02-07T12:08:14.103Z,1.90
2024-02-07T12:10:41.013Z,1.75
2024-02-07T12:13:10.970Z,1.65
2024-02-07T12:15:38.150Z,1.67
2024-02-07T12:18:06.206Z,2.10
2024-02-07T12:20:32.997Z,1.50
2024-02-07T12:23:01.125Z,1.73
2024-02-07T12:25:28.137Z,2.50
2024-02-07T12:27:55.689Z,2.00
2024-02-07T12:30:22.267Z,2.80
2024-02-07T12:32:48.917Z,2.50
2024-02-07T12:35:15.664Z,2.58
2024-02-07T12:37:42.314Z,2.40
2024-02-07T12:40:14.692Z,2.53
2024-02-07T12:42:41.423Z,2.25
2024-02-07T12:45:11.261Z,2.42
2024-02-07T12:47:38.061Z,2.17
2024-02-07T12:50:05.397Z,2.10
2024-02-07T12:52:32.143Z,1.98
2024-02-07T12:54:58.906Z,1.70
2024-02-07T12:57:26.327Z,1.90
2024-02-07T12:59:54.448Z,1.80
2024-02-07T13:02:21.405Z,1.38
2024-02-07T13:04:48.603Z,1.60
2024-02-07T13:07:16.873Z,1.50
2024-02-07T13:09:45.556Z,2.58
2024-02-07T13:12:19.430Z,1.38
2024-02-07T13:14:54.464Z,1.85
2024-02-07T13:17:21.004Z,1.80
2024-02-07T13:19:47.675Z,1.45
2024-02-07T13:22:15.783Z,2.50
2024-02-07T13:24:43.116Z,2.88
2024-02-07T13:27:09.898Z,2.67
2024-02-07T13:29:42.215Z,2.42
2024-02-07T13:32:13.985Z,2.67
2024-02-07T13:34:42.996Z,2.97
2024-02-07T13:37:09.793Z,2.78
2024-02-07T13:39:37.213Z,2.95
2024-02-07T13:42:04.125Z,2.70
2024-02-07T13:44:30.647Z,3.50
2024-02-07T13:46:58.181Z,3.10
2024-02-07T13:49:24.938Z,3.22
2024-02-07T13:51:51.813Z,2.08
2024-02-07T13:54:18.374Z,3.35
2024-02-07T13:56:44.878Z,4.45
2024-02-07T13:59:12.076Z,3.88
2024-02-07T14:01:41.711Z,3.70
2024-02-07T14:04:08.770Z,3.38
2024-02-07T14:06:35.358Z,3.60
2024-02-07T14:09:01.941Z,3.92
2024-02-07T14:11:28.499Z,4.25
2024-02-07T14:13:55.242Z,4.32
2024-02-07T14:16:22.044Z,3.08
2024-02-07T14:18:48.754Z,2.90
2024-02-07T14:21:15.400Z,4.20
2024-02-07T14:23:41.964Z,3.47
2024-02-07T14:26:09.027Z,3.22
2024-02-07T14:28:35.702Z,3.92
2024-02-07T14:31:02.290Z,3.30
2024-02-07T14:33:29.031Z,4.90
2024-02-07T14:35:55.865Z,3.63
2024-02-07T14:38:24.320Z,3.63
2024-02-07T14:40:51.048Z,3.15
2024-02-07T14:43:18.011Z,2.65
2024-02-07T14:45:44.632Z,2.33
2024-02-07T14:48:11.448Z,2.78
2024-02-07T14:50:41.483Z,2.63
2024-02-07T14:53:08.470Z,2.53
2024-02-07T14:55:35.321Z,2.30
2024-02-07T14:58:01.960Z,2.78
2024-02-07T15:00:28.531Z,2.60
2024-02-07T15:02:55.481Z,2.50
2024-02-07T15:05:23.359Z,2.00
2024-02-07T15:07:51.244Z,2.42
2024-02-07T15:10:18.195Z,2.00
2024-02-07T15:12:44.966Z,2.85
2024-02-07T15:15:11.862Z,1.95
2024-02-07T15:17:43.339Z,2.10
2024-02-07T15:20:10.901Z,1.77
2024-02-07T15:22:37.723Z,2.20
2024-02-07T15:25:05.281Z,2.03
2024-02-07T15:27:31.974Z,2.58
2024-02-07T15:29:58.617Z,3.13
2024-02-07T15:32:25.318Z,2.83
2024-02-07T15:34:51.960Z,2.92
2024-02-07T15:37:18.648Z,2.95
2024-02-07T15:39:45.298Z,3.65
2024-02-07T15:42:12.034Z,3.80
2024-02-07T15:44:40.723Z,3.78
2024-02-07T15:47:07.368Z,2.55
2024-02-07T15:49:34.155Z,2.63
2024-02-07T15:52:00.720Z,3.40
2024-02-07T15:54:27.288Z,3.63
2024-02-07T15:57:01.063Z,4.90
2024-02-07T15:59:27.653Z,4.15
2024-02-07T16:01:55.436Z,5.13
2024-02-07T16:04:22.739Z,4.40
2024-02-07T16:06:49.589Z,5.22
2024-02-07T16:09:17.555Z,6.15
2024-02-07T16:11:44.370Z,5.97
2024-02-07T16:14:11.720Z,5.22
2024-02-07T16:16:42.257Z,3.58
2024-02-07T16:19:09.327Z,4.60
2024-02-07T16:21:35.913Z,4.75
2024-02-07T16:24:02.427Z,5.68
2024-02-07T16:26:29.026Z,5.03
2024-02-07T16:28:55.708Z,5.63
2024-02-07T16:31:22.476Z,5.93
2024-02-07T16:33:49.146Z,5.53
2024-02-07T16:36:16.340Z,7.60
2024-02-07T16:38:43.110Z,6.95
2024-02-07T16:41:10.756Z,7.15
2024-02-07T16:43:37.636Z,8.60
2024-02-07T16:46:04.536Z,8.38
2024-02-07T16:48:31.183Z,8.52
2024-02-07T16:50:57.893Z,8.43
2024-02-07T16:53:24.437Z,7.53
2024-02-07T16:55:51.811Z,6.85
2024-02-07T16:58:18.772Z,7.30
2024-02-07T17:00:47.400Z,6.90
2024-02-07T17:03:14.166Z,6.70
2024-02-07T17:05:41.711Z,7.60
2024-02-07T17:08:08.464Z,8.20
2024-02-07T17:10:35.234Z,7.32
2024-02-07T17:13:01.978Z,7.13
2024-02-07T17:15:28.572Z,7.88
2024-02-07T17:17:56.956Z,7.45
2024-02-07T17:20:24.431Z,9.32
2024-02-07T17:22:51.533Z,7.93
2024-02-07T17:25:18.470Z,7.57
2024-02-07T17:27:45.231Z,8.15
2024-02-07T17:30:18.396Z,8.50
2024-02-07T17:32:52.199Z,7.10
2024-02-07T17:35:19.058Z,8.55
2024-02-07T17:37:45.758Z,8.30
2024-02-07T17:40:12.607Z,8.48
2024-02-07T17:42:39.211Z,8.13
2024-02-07T17:45:06.013Z,7.30
2024-02-07T17:47:32.654Z,8.05
2024-02-07T17:49:59.309Z,6.75
2024-02-07T17:52:25.943Z,5.68
2024-02-07T17:54:52.548Z,5.70
2024-02-07T17:57:19.144Z,6.13
2024-02-07T17:59:45.686Z,5.07
2024-02-07T18:02:12.933Z,4.50
2024-02-07T18:04:39.644Z,3.30
2024-02-07T18:07:07.340Z,2.90
2024-02-07T18:09:34.068Z,10.45
2024-02-07T18:12:02.931Z,4.95
2024-02-07T18:14:29.494Z,12.43
2024-02-07T18:16:56.130Z,11.45
2024-02-07T18:19:22.853Z,7.00
2024-02-07T18:21:49.776Z,17.17
2024-02-07T18:24:19.249Z,11.07
2024-02-07T18:26:48.246Z,10.57
2024-02-07T18:29:15.465Z,5.13
2024-02-07T18:31:42.162Z,4.85
2024-02-07T18:34:09.452Z,5.80
2024-02-07T18:36:38.057Z,4.80
2024-02-07T18:39:05.595Z,3.70
2024-02-07T18:41:33.340Z,10.90
2024-02-07T18:44:00.249Z,6.25
2024-02-07T18:46:27.002Z,4.20
2024-02-07T18:48:53.705Z,3.83
2024-02-07T18:51:22.521Z,5.82
2024-02-07T18:53:49.020Z,6.00
2024-02-07T18:56:15.667Z,4.93
2024-02-07T18:58:42.317Z,6.60
2024-02-07T19:01:09.020Z,5.70
2024-02-07T19:03:40.323Z,5.43
2024-02-07T19:06:10.095Z,5.55
2024-02-07T19:08:36.869Z,9.38
2024-02-07T19:11:03.619Z,5.50
2024-02-07T19:13:30.406Z,18.38
2024-02-07T19:15:56.998Z,19.70
2024-02-07T19:18:23.761Z,13.68
2024-02-07T19:20:50.447Z,10.32
2024-02-07T19:23:16.965Z,7.13
2024-02-07T19:25:44.033Z,15.60
2024-02-07T19:28:10.702Z,7.53
2024-02-07T19:30:37.589Z,13.70
2024-02-07T19:33:04.669Z,9.48
2024-02-07T19:35:31.325Z,9.88
2024-02-07T19:37:58.099Z,9.68
2024-02-07T19:40:24.857Z,7.03
2024-02-07T19:42:51.473Z,7.53
2024-02-07T19:45:18.130Z,4.88
2024-02-07T19:47:44.760Z,7.22
2024-02-07T19:50:15.113Z,6.07
2024-02-07T19:52:42.694Z,6.50
2024-02-07T19:55:09.567Z,7.45
2024-02-07T19:57:36.159Z,7.53
2024-02-07T20:00:02.851Z,6.55
2024-02-07T20:02:29.580Z,5.68
2024-02-07T20:04:56.257Z,5.28
2024-02-07T20:07:23.037Z,6.47
2024-02-07T20:09:49.604Z,4.80
2024-02-07T20:12:16.198Z,5.70
2024-02-07T20:14:42.749Z,4.40
2024-02-07T20:17:09.731Z,4.70
2024-02-07T20:19:36.796Z,4.75
2024-02-07T20:22:06.384Z,4.18
2024-02-07T20:24:34.869Z,3.13
2024-02-07T20:27:01.440Z,3.80
2024-02-07T20:29:28.466Z,3.97
2024-02-07T20:31:55.049Z,5.35
2024-02-07T20:34:21.983Z,4.35
2024-02-07T20:36:48.704Z,4.53
2024-02-07T20:39:15.222Z,9.82
2024-02-07T20:41:45.462Z,10.60
2024-02-07T20:44:22.532Z,6.60
2024-02-07T20:46:49.684Z,7.45
2024-02-07T20:49:16.430Z,6.50
2024-02-07T20:51:46.073Z,6.15
2024-02-07T20:54:12.661Z,5.93
2024-02-07T20:56:39.510Z,7.22
2024-02-07T20:59:06.216Z,5.65
2024-02-07T21:01:32.967Z,5.93
2024-02-07T21:03:59.530Z,8.18
2024-02-07T21:06:29.302Z,6.05
2024-02-07T21:08:56.997Z,7.68
2024-02-07T21:11:24.755Z,4.50
2024-02-07T21:13:51.549Z,4.38
2024-02-07T21:16:18.120Z,4.40
2024-02-07T21:18:44.687Z,4.20
2024-02-07T21:21:16.347Z,3.60
2024-02-07T21:23:43.256Z,3.60
2024-02-07T21:26:10.156Z,4.30
2024-02-07T21:28:37.212Z,4.05
2024-02-07T21:31:03.975Z,4.50
2024-02-07T21:33:30.841Z,3.70
2024-02-07T21:35:57.774Z,4.30
2024-02-07T21:38:24.468Z,4.05
2024-02-07T21:40:52.014Z,4.18
2024-02-07T21:43:18.687Z,4.40
2024-02-07T21:45:45.539Z,3.13
2024-02-07T21:48:12.496Z,3.78
2024-02-07T21:50:39.042Z,4.05
2024-02-07T21:53:05.708Z,4.20
2024-02-07T21:55:32.289Z,5.20
2024-02-07T21:57:58.965Z,3.97
2024-02-07T22:00:25.495Z,4.20
2024-02-07T22:02:52.093Z,4.43
2024-02-07T22:05:18.805Z,4.70
2024-02-07T22:07:45.588Z,4.72
2024-02-07T22:10:12.144Z,5.20
2024-02-07T22:12:38.669Z,4.53
2024-02-07T22:15:05.711Z,4.90
2024-02-07T22:17:32.248Z,5.00
2024-02-07T22:19:58.873Z,4.75
2024-02-07T22:22:25.925Z,4.75
2024-02-07T22:24:52.560Z,5.32
2024-02-07T22:27:19.125Z,5.68
2024-02-07T22:29:45.708Z,4.15
2024-02-07T22:32:13.403Z,4.25
2024-02-07T22:34:40.283Z,4.63
2024-02-07T22:37:09.575Z,5.00
2024-02-07T22:39:36.264Z,5.35
2024-02-07T22:42:03.503Z,5.95
2024-02-07T22:44:31.266Z,4.78
2024-02-07T22:46:57.915Z,5.18
2024-02-07T22:49:24.667Z,5.82
2024-02-07T22:51:53.403Z,4.03
2024-02-07T22:54:20.332Z,5.47
2024-02-07T22:56:47.165Z,5.28
2024-02-07T22:59:13.876Z,4.70
2024-02-07T23:01:40.663Z,4.88
2024-02-07T23:04:08.191Z,4.35
2024-02-07T23:06:37.395Z,5.20
2024-02-07T23:09:05.185Z,5.47
2024-02-07T23:11:31.965Z,4.47
2024-02-07T23:13:59.407Z,5.22
2024-02-07T23:16:26.149Z,4.35
2024-02-07T23:18:52.710Z,5.10
2024-02-07T23:21:19.298Z,4.43
2024-02-07T23:23:45.855Z,3.75
2024-02-07T23:26:12.484Z,4.32
2024-02-07T23:28:39.060Z,3.78
2024-02-07T23:31:05.560Z,2.80
2024-02-07T23:33:32.142Z,4.75
2024-02-07T23:36:00.742Z,3.47
2024-02-07T23:38:27.341Z,3.30
2024-02-07T23:40:53.935Z,5.57
2024-02-07T23:43:20.514Z,6.30
2024-02-07T23:45:47.005Z,5.70
2024-02-07T23:48:13.715Z,5.22
2024-02-07T23:50:40.355Z,5.90
2024-02-07T23:53:06.923Z,7.05
2024-02-07T23:55:33.520Z,6.50
2024-02-07T23:58:00.103Z,7.63
